Time;durP1;ratioP1;P1;durP2;ratioP2;P2;SDS_P1;SDS_P2;PMS_P1;PMS_P2;Temp;Humidity;BMP_temperature;BMP_pressure;BME280_temperature;BME280_humidity;BME280_pressure;Samples;Min_cycle;Max_cycle;Signal;HPM_P1;HPM_P2
2021/05/21 00:00:31;;;;;;;11.25;3.33;;;;;;;8.30;70.79;100286.88;125784;1101;22725;-59
2021/05/21 00:03:15;;;;;;;11.13;3.50;;;;;;;8.28;70.79;100292.88;125766;1096;27138;-60
2021/05/21 00:05:46;;;;;;;14.10;4.10;;;;;;;8.26;70.95;100286.23;125810;1097;22766;-60
2021/05/21 00:08:16;;;;;;;10.50;3.87;;;;;;;8.24;70.90;100281.11;125769;1101;24390;-59
2021/05/21 00:10:46;;;;;;;13.05;3.80;;;;;;;8.23;71.11;100276.02;125841;1097;25916;-62
2021/05/21 00:13:16;;;;;;;12.55;3.73;;;;;;;8.18;71.07;100272.61;125782;1096;25976;-59
2021/05/21 00:15:46;;;;;;;15.23;4.63;;;;;;;8.14;71.01;100260.09;125789;1101;22727;-59
2021/05/21 00:18:17;;;;;;;11.83;4.18;;;;;;;8.09;71.33;100264.25;125777;1101;22734;-59
2021/05/21 00:20:47;;;;;;;14.77;3.80;;;;;;;8.07;71.40;100258.38;125843;1096;27218;-60
2021/05/21 00:23:19;;;;;;;18.03;4.63;;;;;;;8.04;71.36;100259.31;125871;1101;22754;-59
2021/05/21 00:25:49;;;;;;;14.03;4.83;;;;;;;7.99;71.55;100254.36;125726;1096;25938;-60
2021/05/21 00:28:18;;;;;;;;;;;;;;;7.95;71.52;100255.73;125884;1101;22822;-59
2021/05/21 00:30:47;;;;;;;15.17;5.07;;;;;;;7.92;71.53;100253.89;125730;1101;21462;-59
2021/05/21 00:33:17;;;;;;;15.38;4.88;;;;;;;7.88;71.77;100259.58;125832;1096;23387;-58
2021/05/21 00:35:49;;;;;;;15.87;5.83;;;;;;;7.86;71.64;100250.92;125746;1101;22718;-60
2021/05/21 00:38:21;;;;;;;14.77;4.83;;;;;;;7.83;71.52;100249.08;125754;1097;26021;-59
2021/05/21 00:40:51;;;;;;;13.00;4.80;;;;;;;7.80;71.74;100252.77;125696;1101;24413;-59
2021/05/21 00:43:21;;;;;;;19.38;5.38;;;;;;;7.79;71.62;100258.80;125738;1101;22810;-59
2021/05/21 00:45:51;;;;;;;16.20;5.63;;;;;;;7.76;71.75;100246.58;125900;1095;25879;-59
2021/05/21 00:48:21;;;;;;;17.98;5.55;;;;;;;7.74;71.83;100253.86;125718;1101;22802;-60
2021/05/21 00:50:51;;;;;;;14.20;4.67;;;;;;;7.71;71.55;100260.31;125745;1101;23406;-59
2021/05/21 00:53:26;;;;;;;15.47;5.73;;;;;;;7.67;71.98;100259.69;125752;1101;22744;-59
2021/05/21 00:55:59;;;;;;;14.63;4.97;;;;;;;7.62;72.05;100252.73;125722;1101;24281;-59
2021/05/21 00:58:30;;;;;;;15.40;5.57;;;;;;;7.60;72.17;100248.85;125822;1096;24380;-59
2021/05/21 01:01:01;;;;;;;13.00;5.20;;;;;;;7.58;72.17;100245.76;125960;1096;26880;-58
2021/05/21 01:03:31;;;;;;;17.88;6.18;;;;;;;7.56;72.46;100249.00;125765;1101;22738;-60
2021/05/21 01:06:01;;;;;;;19.20;5.77;;;;;;;7.52;72.48;100236.48;125794;1101;22819;-59
2021/05/21 01:08:32;;;;;;;16.70;5.60;;;;;;;7.50;72.46;100244.50;125947;1101;25285;-59
2021/05/21 01:11:03;;;;;;;17.37;5.67;;;;;;;7.46;72.71;100244.66;125701;1101;22745;-59
2021/05/21 01:13:33;;;;;;;14.63;5.07;;;;;;;7.46;72.76;100247.43;125848;1101;22742;-59
2021/05/21 01:16:04;;;;;;;14.18;5.53;;;;;;;7.43;72.73;100242.02;125708;1101;22794;-59
2021/05/21 01:18:34;;;;;;;14.15;4.95;;;;;;;7.41;72.69;100233.38;125969;1101;22749;-60
2021/05/21 01:21:07;;;;;;;13.78;4.98;;;;;;;7.41;72.87;100236.16;126128;1101;23306;-61
2021/05/21 01:23:38;;;;;;;15.00;5.65;;;;;;;7.40;72.93;100238.16;125945;1101;22840;-60
2021/05/21 01:26:11;;;;;;;12.58;4.23;;;;;;;7.40;72.94;100231.81;125932;1096;22865;-61
2021/05/21 01:28:41;;;;;;;13.27;4.93;;;;;;;7.38;73.16;100226.73;125900;1101;22752;-59
2021/05/21 01:31:12;;;;;;;11.70;4.20;;;;;;;7.37;73.12;100224.41;125963;1101;22787;-58
2021/05/21 01:33:43;;;;;;;14.40;4.80;;;;;;;7.35;73.20;100216.52;125797;1101;22801;-59
2021/05/21 01:36:13;;;;;;;15.33;4.80;;;;;;;7.34;73.13;100217.77;125733;1101;22734;-59
2021/05/21 01:38:58;;;;;;;13.78;4.75;;;;;;;7.31;73.27;100219.45;125768;1096;22796;-59
2021/05/21 01:41:30;;;;;;;13.73;5.23;;;;;;;7.30;73.22;100226.22;125839;1101;24153;-58
2021/05/21 01:44:00;;;;;;;16.90;5.07;;;;;;;7.28;73.36;100219.59;125855;1101;22873;-61
2021/05/21 01:46:30;;;;;;;16.13;5.85;;;;;;;7.25;73.45;100218.50;125791;1095;27577;-61
2021/05/21 01:49:01;;;;;;;13.83;4.90;;;;;;;7.23;73.52;100214.63;125735;1095;22744;-59
2021/05/21 01:51:32;;;;;;;11.17;4.50;;;;;;;7.21;73.57;100220.64;125884;1097;22803;-62
2021/05/21 01:54:13;;;;;;;15.00;5.35;;;;;;;7.18;73.50;100215.99;125739;1101;22905;-59
2021/05/21 01:56:47;;;;;;;16.87;5.73;;;;;;;7.17;73.44;100222.02;125843;1101;22806;-60
2021/05/21 01:59:19;;;;;;;17.65;6.35;;;;;;;7.14;73.33;100214.58;125975;1101;22782;-59
2021/05/21 02:01:50;;;;;;;14.93;5.63;;;;;;;7.11;73.47;100219.06;125781;1101;24450;-59
2021/05/21 02:04:29;;;;;;;16.00;5.38;;;;;;;7.07;73.53;100210.10;125726;1101;22749;-59
2021/05/21 02:07:01;;;;;;;16.40;6.00;;;;;;;7.04;73.47;100216.55;125853;1101;22736;-59
2021/05/21 02:09:35;;;;;;;14.30;5.77;;;;;;;7.02;73.46;100216.23;125696;1097;22755;-59
2021/05/21 02:12:07;;;;;;;14.93;5.17;;;;;;;7.00;73.61;100209.59;125744;1096;22719;-59
2021/05/21 02:14:40;;;;;;;17.77;5.93;;;;;;;6.96;73.69;100204.18;125812;1101;22744;-58
2021/05/21 02:17:09;;;;;;;16.63;6.30;;;;;;;6.95;73.56;100213.72;125732;1101;22796;-60
2021/05/21 02:19:40;;;;;;;15.70;6.53;;;;;;;6.93;73.60;100202.30;125808;1101;22734;-59
2021/05/21 02:22:10;;;;;;;17.13;6.20;;;;;;;6.93;73.63;100204.33;125802;1101;22727;-59
2021/05/21 02:24:41;;;;;;;15.00;6.55;;;;;;;6.91;73.77;100201.98;125825;1101;22757;-61
2021/05/21 02:27:13;;;;;;;13.47;4.87;;;;;;;6.91;73.74;100199.21;125786;1101;22804;-58
2021/05/21 02:29:42;;;;;;;16.05;5.48;;;;;;;6.89;73.69;100190.56;125771;1101;22800;-58
2021/05/21 02:32:12;;;;;;;15.30;5.33;;;;;;;6.89;74.07;100196.12;125760;1101;23932;-58
2021/05/21 02:34:42;;;;;;;14.08;4.63;;;;;;;6.86;73.97;100183.17;125925;1101;22748;-60
2021/05/21 02:37:12;;;;;;;13.43;5.25;;;;;;;6.85;73.95;100178.08;126025;1096;27281;-59
2021/05/21 02:39:43;;;;;;;16.53;5.10;;;;;;;6.84;74.25;100171.75;125892;1101;22739;-58
2021/05/21 02:42:11;;;;;;;;;;;;;;;6.85;74.49;100166.98;125810;1101;22845;-59
2021/05/21 02:44:42;;;;;;;12.75;4.30;;;;;;;6.86;74.44;100160.97;125898;1096;25760;-58
2021/05/21 02:47:12;;;;;;;16.15;4.60;;;;;;;6.87;74.82;100167.30;125784;1101;22734;-59
2021/05/21 02:49:42;;;;;;;14.07;4.33;;;;;;;6.88;75.06;100166.05;125842;1101;22803;-59
2021/05/21 02:52:12;;;;;;;12.98;4.88;;;;;;;6.89;74.96;100160.05;125811;1096;26884;-59
2021/05/21 02:54:42;;;;;;;11.98;3.85;;;;;;;6.91;74.89;100154.06;125976;1101;22819;-59
2021/05/21 02:57:12;;;;;;;17.20;5.08;;;;;;;6.92;75.17;100159.14;125896;1101;22747;-59
2021/05/21 02:59:44;;;;;;;15.75;4.25;;;;;;;6.94;75.11;100162.23;126004;1101;26897;-59
2021/05/21 03:02:14;;;;;;;13.33;4.60;;;;;;;6.95;75.03;100149.14;125801;1097;27642;-58
2021/05/21 03:04:46;;;;;;;14.05;3.60;;;;;;;6.97;75.07;100149.45;125789;1096;22731;-57
2021/05/21 03:07:15;;;;;;;14.98;4.20;;;;;;;7.00;75.20;100151.30;125804;1101;22718;-59
2021/05/21 03:09:46;;;;;;;12.53;4.03;;;;;;;7.01;75.25;100152.86;125864;1101;23428;-59
2021/05/21 03:12:16;;;;;;;17.08;3.83;;;;;;;7.01;75.44;100147.31;125984;1101;22702;-59
2021/05/21 03:14:45;;;;;;;17.63;4.40;;;;;;;7.01;75.38;100161.97;125788;1101;22718;-58
2021/05/21 03:17:15;;;;;;;15.23;4.30;;;;;;;7.02;75.56;100152.39;125813;1101;22961;-58
2021/05/21 03:19:47;;;;;;;17.33;4.05;;;;;;;7.04;75.75;100149.16;125809;1101;22816;-59
2021/05/21 03:22:17;;;;;;;19.73;4.47;;;;;;;7.06;75.78;100147.48;125789;1101;22819;-59
2021/05/21 03:24:47;;;;;;;13.67;3.87;;;;;;;7.09;76.07;100148.57;125796;1101;22742;-58
2021/05/21 03:27:17;;;;;;;14.23;4.57;;;;;;;7.12;76.09;100150.42;125780;1101;22731;-60
2021/05/21 03:29:48;;;;;;;15.05;4.58;;;;;;;7.16;76.19;100142.72;125762;1095;28921;-59
2021/05/21 03:32:18;;;;;;;14.73;4.00;;;;;;;7.20;76.32;100137.82;125825;1095;27609;-60
2021/05/21 03:34:48;;;;;;;13.65;3.88;;;;;;;7.25;76.79;100143.53;125791;1096;26244;-59
2021/05/21 03:37:18;;;;;;;13.50;4.60;;;;;;;7.28;76.43;100139.07;125793;1101;22817;-59
2021/05/21 03:39:48;;;;;;;16.43;4.85;;;;;;;7.32;76.40;100145.25;125893;1101;22806;-58
2021/05/21 03:42:19;;;;;;;12.25;4.48;;;;;;;7.35;76.71;100133.98;125803;1096;26992;-59
2021/05/21 03:44:50;;;;;;;12.20;4.60;;;;;;;7.39;76.76;100142.16;125876;1097;22762;-60
2021/05/21 03:47:23;;;;;;;11.83;4.90;;;;;;;7.42;76.94;100144.03;125778;1101;22797;-59
2021/05/21 03:49:54;;;;;;;13.90;4.40;;;;;;;7.46;76.78;100127.22;125858;1101;22810;-59
2021/05/21 03:52:26;;;;;;;13.65;5.05;;;;;;;7.48;76.97;100119.19;125865;1101;22718;-59
2021/05/21 03:54:56;;;;;;;13.50;4.87;;;;;;;7.54;76.97;100128.45;125888;1101;22745;-59
2021/05/21 03:57:27;;;;;;;13.05;4.83;;;;;;;7.57;76.92;100125.55;125767;1101;22734;-59
2021/05/21 03:59:57;;;;;;;13.43;4.77;;;;;;;7.60;77.35;100132.95;125845;1101;23163;-61
2021/05/21 04:02:26;;;;;;;;;;;;;;;7.64;77.28;100138.34;126152;1101;23256;-60
2021/05/21 04:04:56;;;;;;;15.13;4.33;;;;;;;7.67;77.40;100129.88;125757;1101;23401;-59
2021/05/21 04:07:26;;;;;;;14.25;4.83;;;;;;;7.69;77.25;100135.75;125802;1101;22796;-59
2021/05/21 04:09:57;;;;;;;11.97;5.03;;;;;;;7.73;77.37;100124.47;125794;1097;25848;-59
2021/05/21 04:12:28;;;;;;;12.67;4.40;;;;;;;7.76;77.43;100123.56;125848;1101;22869;-60
2021/05/21 04:14:59;;;;;;;12.47;5.00;;;;;;;7.82;77.40;100127.27;125760;1101;22732;-60
2021/05/21 04:17:30;;;;;;;14.20;6.50;;;;;;;7.87;77.81;100124.63;125678;1101;22741;-59
2021/05/21 04:20:01;;;;;;;;;;;;;;;7.95;78.09;100123.08;125876;1101;22742;-59
2021/05/21 04:22:31;;;;;;;14.25;5.65;;;;;;;8.01;78.28;100126.00;125830;1096;21461;-59
2021/05/21 04:25:01;;;;;;;14.98;4.98;;;;;;;8.07;77.99;100126.92;125862;1101;22731;-59
2021/05/21 04:27:33;;;;;;;;;;;;;;;8.14;78.08;100126.62;125910;1096;26194;-59
2021/05/21 04:30:04;;;;;;;15.70;6.00;;;;;;;8.20;78.16;100116.41;125761;1095;21464;-59
2021/05/21 04:32:35;;;;;;;14.05;5.90;;;;;;;8.24;78.17;100119.80;125835;1101;23180;-62
2021/05/21 04:35:07;;;;;;;12.83;5.23;;;;;;;8.29;78.07;100108.09;125860;1096;25819;-60
2021/05/21 04:37:38;;;;;;;15.93;6.50;;;;;;;8.34;78.23;100107.45;125966;1101;22903;-58
2021/05/21 04:40:09;;;;;;;14.23;5.90;;;;;;;8.40;78.43;100102.05;125849;1096;22793;-59
2021/05/21 04:42:39;;;;;;;14.97;6.53;;;;;;;8.47;78.30;100101.70;125865;1097;26456;-60
2021/05/21 04:45:11;;;;;;;14.60;5.03;;;;;;;8.54;78.37;100104.17;126002;1101;22807;-61
2021/05/21 04:47:42;;;;;;;14.80;6.13;;;;;;;8.62;78.34;100102.59;125924;1101;24556;-60
2021/05/21 04:50:12;;;;;;;17.85;7.45;;;;;;;8.71;78.40;100099.79;125801;1095;28333;-60
2021/05/21 04:52:42;;;;;;;14.85;6.18;;;;;;;8.77;78.47;100095.13;125738;1101;22738;-59
2021/05/21 04:55:15;;;;;;;14.68;5.95;;;;;;;8.84;78.41;100097.55;126009;1101;22710;-59
2021/05/21 04:57:49;;;;;;;14.55;5.80;;;;;;;8.92;78.36;100096.74;125993;1096;26501;-59
2021/05/21 05:00:21;;;;;;;14.95;5.35;;;;;;;8.99;78.48;100087.28;125872;1095;27144;-60
2021/05/21 05:02:50;;;;;;;14.75;5.20;;;;;;;9.08;78.33;100086.47;125896;1101;22747;-59
2021/05/21 05:05:21;;;;;;;17.07;5.93;;;;;;;9.16;78.39;100087.66;125773;1101;22797;-60
2021/05/21 05:07:51;;;;;;;16.57;5.50;;;;;;;9.24;78.36;100094.41;125792;1095;25845;-61
2021/05/21 05:10:21;;;;;;;14.60;5.65;;;;;;;9.29;78.13;100090.98;125706;1101;22810;-60
2021/05/21 05:12:52;;;;;;;14.00;5.67;;;;;;;9.36;78.04;100093.41;125766;1101;22852;-60
2021/05/21 05:15:22;;;;;;;13.60;6.03;;;;;;;9.43;77.88;100090.27;125974;1101;22877;-60
2021/05/21 05:17:52;;;;;;;15.23;5.57;;;;;;;9.48;78.03;100084.02;125863;1095;28550;-60
2021/05/21 05:20:24;;;;;;;12.83;6.10;;;;;;;9.54;77.93;100079.34;125729;1101;22793;-61
2021/05/21 05:22:55;;;;;;;13.07;4.27;;;;;;;9.63;78.07;100079.28;125736;1101;22774;-61
2021/05/21 05:25:28;;;;;;;13.57;4.77;;;;;;;9.74;78.22;100071.14;125734;1101;22879;-60
2021/05/21 05:27:58;;;;;;;12.43;5.35;;;;;;;9.86;78.17;100074.91;125738;1101;22717;-60
2021/05/21 05:30:28;;;;;;;13.33;5.20;;;;;;;9.98;78.09;100082.23;125730;1101;22724;-59
2021/05/21 05:32:58;;;;;;;12.50;4.23;;;;;;;10.08;78.03;100078.09;125848;1101;22715;-61
2021/05/21 05:35:28;;;;;;;11.25;4.88;;;;;;;10.20;77.98;100079.89;125429;1096;22863;-60
2021/05/21 05:37:58;;;;;;;11.75;5.25;;;;;;;10.30;77.73;100067.38;125519;1101;22730;-60
2021/05/21 05:40:28;;;;;;;;;;;;;;;10.41;77.93;100068.33;125717;1101;22725;-60
2021/05/21 05:42:58;;;;;;;9.98;3.23;;;;;;;10.55;77.77;100061.22;125720;1101;21492;-61
2021/05/21 05:45:29;;;;;;;16.60;6.75;;;;;;;10.69;77.62;100054.05;125643;1101;22718;-62
2021/05/21 05:47:59;;;;;;;14.53;6.70;;;;;;;10.83;77.79;100056.81;126229;1101;22745;-64
2021/05/21 05:50:28;;;;;;;12.68;5.60;;;;;;;10.98;77.75;100051.97;125630;1096;26680;-62
2021/05/21 05:53:00;;;;;;;14.35;6.10;;;;;;;11.16;77.56;100042.55;125721;1096;25964;-63
2021/05/21 05:55:30;;;;;;;13.57;6.77;;;;;;;11.34;77.31;100039.47;125593;1101;25648;-62
2021/05/21 05:58:00;;;;;;;14.37;6.07;;;;;;;11.53;76.93;100037.94;125636;1101;24462;-62
2021/05/21 06:00:30;;;;;;;15.18;5.13;;;;;;;11.72;76.94;100032.84;125666;1101;22806;-62
2021/05/21 06:03:07;;;;;;;11.63;3.28;;;;;;;11.91;76.76;100031.27;125686;1096;26821;-62
2021/05/21 06:05:38;;;;;;;7.23;2.67;;;;;;;12.12;75.78;100030.70;125923;1096;27493;-61
2021/05/21 06:08:08;;;;;;;12.50;3.17;;;;;;;12.28;75.29;100034.94;125839;1096;22706;-61
2021/05/21 06:10:38;;;;;;;;;;;;;;;12.42;75.33;100036.05;125729;1096;26501;-61
2021/05/21 06:13:09;;;;;;;8.70;2.33;;;;;;;12.53;75.36;100027.75;126056;1101;21512;-67
2021/05/21 06:15:40;;;;;;;7.00;2.17;;;;;;;12.68;74.96;100017.92;125678;1096;23581;-62
2021/05/21 06:18:10;;;;;;;9.53;2.30;;;;;;;12.88;75.40;100009.41;125776;1101;25529;-62
2021/05/21 06:20:40;;;;;;;9.13;2.23;;;;;;;13.07;75.07;100009.03;125708;1101;23476;-62
2021/05/21 06:23:10;;;;;;;6.15;2.08;;;;;;;13.18;74.15;100004.23;125742;1101;22804;-62
2021/05/21 06:28:25;;;;;;;7.10;2.20;;;;;;;13.45;73.67;99997.98;125752;1101;22728;-61
2021/05/21 06:30:55;;;;;;;5.60;1.80;;;;;;;13.53;73.13;99999.02;125657;1101;24422;-62
2021/05/21 06:33:25;;;;;;;7.50;2.05;;;;;;;13.63;73.22;99996.77;125666;1101;23572;-64
2021/05/21 06:35:55;;;;;;;6.83;1.78;;;;;;;13.74;72.92;99994.75;125674;1101;22755;-61
2021/05/21 06:38:25;;;;;;;9.50;2.03;;;;;;;13.89;72.82;99988.91;125712;1101;24555;-63
2021/05/21 06:40:55;;;;;;;5.60;1.80;;;;;;;14.03;71.95;99981.55;125725;1096;26226;-62
2021/05/21 06:43:27;;;;;;;6.03;1.73;;;;;;;14.10;71.46;99990.22;125728;1101;22803;-61
2021/05/21 06:45:58;;;;;;;6.35;1.60;;;;;;;14.10;71.46;99987.41;126003;1101;24537;-62
2021/05/21 06:48:30;;;;;;;6.10;1.70;;;;;;;14.11;71.11;99988.92;125711;1101;22798;-62
2021/05/21 06:51:02;;;;;;;5.60;1.80;;;;;;;14.18;71.26;99985.63;126132;1101;22745;-62
2021/05/21 06:53:32;;;;;;;6.65;1.60;;;;;;;14.26;69.86;99983.83;125818;1096;22857;-63
2021/05/21 06:56:03;;;;;;;5.70;1.55;;;;;;;14.29;70.60;99987.70;125853;1101;24131;-63
2021/05/21 06:58:31;;;;;;;;;;;;;;;14.31;69.87;99993.57;125741;1101;23506;-67
2021/05/21 07:01:01;;;;;;;6.25;1.30;;;;;;;14.36;70.10;99992.81;125742;1096;24614;-63
2021/05/21 07:03:31;;;;;;;9.00;1.20;;;;;;;14.43;69.67;99981.05;125790;1096;27214;-62
2021/05/21 07:06:01;;;;;;;4.68;1.30;;;;;;;14.49;69.86;99973.38;125956;1101;22733;-62
2021/05/21 07:08:31;;;;;;;4.33;1.00;;;;;;;14.56;68.93;99972.88;125650;1101;24521;-62
2021/05/21 07:11:01;;;;;;;4.88;1.20;;;;;;;14.62;68.56;99964.42;125818;1101;22759;-62
2021/05/21 07:13:31;;;;;;;3.45;1.13;;;;;;;14.74;69.12;99955.46;125843;1101;22806;-61
2021/05/21 07:16:01;;;;;;;5.20;1.30;;;;;;;14.90;68.82;99954.64;125848;1101;22733;-62
2021/05/21 07:18:32;;;;;;;4.20;1.00;;;;;;;15.03;68.20;99954.09;125735;1096;26923;-63
2021/05/21 07:21:02;;;;;;;2.25;0.80;;;;;;;15.13;67.65;99960.95;125932;1101;22718;-62
2021/05/21 07:23:33;;;;;;;;;;;;;;;15.21;67.29;99953.50;125790;1101;24562;-63
2021/05/21 07:26:03;;;;;;;5.93;1.07;;;;;;;15.28;66.86;99947.34;125698;1101;21609;-62
2021/05/21 07:28:32;;;;;;;;;;;;;;;15.34;66.81;99945.27;125933;1101;24380;-63
2021/05/21 07:31:02;;;;;;;5.80;1.07;;;;;;;15.39;66.21;99942.42;125615;1101;21461;-62
2021/05/21 07:33:35;;;;;;;5.48;1.40;;;;;;;15.43;66.34;99935.80;126209;1101;23547;-61
2021/05/21 07:36:07;;;;;;;5.27;1.13;;;;;;;15.49;66.04;99934.48;125699;1096;26194;-62
2021/05/21 07:38:37;;;;;;;3.40;0.90;;;;;;;15.60;66.30;99930.84;125769;1101;22727;-62
2021/05/21 07:41:07;;;;;;;3.80;0.98;;;;;;;15.73;65.64;99931.00;125768;1096;22728;-62
2021/05/21 07:43:38;;;;;;;3.48;1.00;;;;;;;15.75;65.17;99928.42;125922;1096;22745;-63
2021/05/21 07:46:08;;;;;;;7.55;1.20;;;;;;;15.77;65.22;99925.84;125717;1101;22747;-62
2021/05/21 07:48:38;;;;;;;5.50;0.93;;;;;;;15.84;64.29;99928.88;125966;1096;26283;-62
2021/05/21 07:51:08;;;;;;;5.70;1.15;;;;;;;15.93;64.42;99928.54;125805;1096;27252;-62
2021/05/21 07:53:38;;;;;;;4.58;1.00;;;;;;;15.97;63.86;99917.02;125755;1101;22746;-63
2021/05/21 07:56:09;;;;;;;2.90;0.95;;;;;;;15.99;64.16;99917.25;125770;1095;27359;-62
2021/05/21 07:58:38;;;;;;;;;;;;;;;16.02;63.57;99908.52;125931;1101;22830;-62
2021/05/21 08:01:08;;;;;;;3.25;0.80;;;;;;;16.09;63.68;99899.50;126059;1096;23110;-62
2021/05/21 08:03:38;;;;;;;4.08;0.80;;;;;;;16.16;63.43;99896.09;125740;1095;25812;-62
2021/05/21 08:06:08;;;;;;;2.53;0.70;;;;;;;16.26;63.14;99896.54;125891;1095;27284;-63
2021/05/21 08:08:38;;;;;;;2.33;0.80;;;;;;;16.35;62.18;99895.41;126146;1096;26225;-63
2021/05/21 08:11:08;;;;;;;3.73;0.90;;;;;;;16.40;61.83;99898.19;125723;1101;22772;-62
2021/05/21 08:13:40;;;;;;;3.18;0.80;;;;;;;16.46;62.44;99884.80;126065;1101;22803;-63
2021/05/21 08:16:12;;;;;;;3.40;0.95;;;;;;;16.57;61.86;99890.36;126101;1101;22750;-62
2021/05/21 08:18:42;;;;;;;2.60;1.00;;;;;;;16.66;62.05;99889.98;125789;1101;25388;-64
2021/05/21 08:21:13;;;;;;;3.08;0.58;;;;;;;16.77;61.72;99889.87;125803;1101;22745;-62
2021/05/21 08:23:41;;;;;;;;;;;;;;;16.89;62.03;99879.20;125797;1101;22731;-62
2021/05/21 08:26:11;;;;;;;3.00;0.70;;;;;;;17.06;61.47;99874.13;125776;1097;24157;-63
2021/05/21 08:28:43;;;;;;;1.93;0.45;;;;;;;17.21;58.38;99879.31;125778;1096;26884;-62
2021/05/21 08:31:13;;;;;;;1.50;0.40;;;;;;;17.30;58.73;99871.22;125701;1101;22762;-63
2021/05/21 08:33:44;;;;;;;3.13;0.40;;;;;;;17.37;58.00;99881.91;125603;1101;24970;-62
2021/05/21 08:36:14;;;;;;;4.10;0.50;;;;;;;17.42;57.75;99874.66;125951;1101;22734;-63
2021/05/21 08:38:45;;;;;;;2.25;0.45;;;;;;;17.47;58.16;99865.34;125801;1101;22862;-62
2021/05/21 08:41:17;;;;;;;1.50;0.35;;;;;;;17.49;57.32;99857.89;125878;1096;26222;-62
2021/05/21 08:43:50;;;;;;;2.50;0.40;;;;;;;17.60;57.33;99842.85;125783;1101;22796;-62
2021/05/21 08:46:21;;;;;;;7.40;0.70;;;;;;;17.68;57.40;99840.92;125780;1101;22803;-62
2021/05/21 08:48:51;;;;;;;4.35;0.50;;;;;;;17.73;57.50;99838.00;125793;1101;22734;-62
2021/05/21 08:51:23;;;;;;;2.40;0.50;;;;;;;17.77;56.22;99838.44;125827;1101;22891;-62
2021/05/21 08:53:53;;;;;;;1.05;0.35;;;;;;;17.78;55.44;99845.63;125910;1101;22784;-63
2021/05/21 08:56:22;;;;;;;2.70;0.40;;;;;;;17.76;54.92;99845.41;125901;1101;22738;-64
2021/05/21 08:58:53;;;;;;;2.13;0.40;;;;;;;17.77;54.72;99843.35;125915;1101;22721;-63
2021/05/21 09:01:27;;;;;;;2.07;0.40;;;;;;;17.76;53.63;99833.34;126376;1101;23214;-63
2021/05/21 09:04:01;;;;;;;3.40;0.40;;;;;;;17.76;53.98;99827.70;125944;1101;24419;-63
2021/05/21 09:06:38;;;;;;;1.80;0.40;;;;;;;17.79;54.61;99826.63;126108;1096;26237;-64
2021/05/21 09:09:11;;;;;;;1.55;0.40;;;;;;;17.84;54.30;99825.76;126306;1101;22717;-62
2021/05/21 09:11:43;;;;;;;2.60;0.40;;;;;;;17.91;53.57;99819.48;125813;1101;22718;-64
2021/05/21 09:14:15;;;;;;;7.30;0.40;;;;;;;17.97;53.93;99820.16;125924;1101;22718;-63
2021/05/21 09:16:46;;;;;;;2.15;0.50;;;;;;;18.00;52.91;99804.19;125935;1101;22822;-64
2021/05/21 09:19:18;;;;;;;2.25;0.60;;;;;;;18.00;52.71;99801.37;125895;1101;22737;-64
2021/05/21 09:21:47;;;;;;;5.00;0.60;;;;;;;17.99;52.25;99806.25;126038;1101;22838;-62
2021/05/21 09:24:18;;;;;;;3.40;0.40;;;;;;;17.99;52.31;99803.42;126064;1101;22809;-63
2021/05/21 09:26:50;;;;;;;1.80;0.30;;;;;;;18.02;52.46;99802.33;125791;1101;22745;-63
2021/05/21 09:29:40;;;;;;;2.00;0.37;;;;;;;18.08;51.68;99794.54;125833;1096;27482;-62
2021/05/21 09:32:25;;;;;;;1.57;0.20;;;;;;;18.16;52.34;99791.81;126135;1101;22746;-63
2021/05/21 09:35:07;;;;;;;3.90;0.40;;;;;;;18.27;51.51;99791.62;126248;1101;25446;-63
2021/05/21 09:37:42;;;;;;;2.55;0.50;;;;;;;18.32;50.71;99794.33;126677;1101;24461;-63
2021/05/21 09:40:16;;;;;;;3.85;0.45;;;;;;;18.36;51.22;99774.20;125898;1095;27291;-64
2021/05/21 09:42:52;;;;;;;9.35;0.90;;;;;;;18.40;50.44;99771.81;126023;1096;26532;-64
2021/05/21 09:45:28;;;;;;;0.80;0.30;;;;;;;18.42;50.97;99766.38;125836;1096;25845;-65
2021/05/21 09:48:00;;;;;;;1.75;0.30;;;;;;;18.49;50.73;99758.05;125940;1101;22803;-63
2021/05/21 09:50:41;;;;;;;1.45;0.30;;;;;;;18.56;50.58;99751.71;126133;1095;25967;-63
2021/05/21 09:53:16;;;;;;;2.55;0.40;;;;;;;18.65;50.33;99749.73;125920;1096;25339;-64
2021/05/21 09:55:51;;;;;;;2.60;0.20;;;;;;;18.73;49.81;99750.59;125978;1101;25647;-63
2021/05/21 09:58:29;;;;;;;2.63;0.40;;;;;;;18.78;49.69;99744.83;125885;1101;22802;-63
2021/05/21 10:01:14;;;;;;;4.50;0.37;;;;;;;18.81;49.23;99742.98;125806;1101;22897;-63
2021/05/21 10:03:46;;;;;;;2.87;0.20;;;;;;;18.85;49.85;99734.92;125913;1101;22742;-62
2021/05/21 10:06:18;;;;;;;1.90;0.20;;;;;;;18.89;49.12;99730.42;125804;1101;22751;-64
2021/05/21 10:08:48;;;;;;;4.90;0.40;;;;;;;18.94;49.78;99723.89;125869;1101;22743;-64
2021/05/21 10:11:19;;;;;;;2.30;0.27;;;;;;;19.02;49.24;99718.30;126126;1096;22830;-64
2021/05/21 10:13:49;;;;;;;1.15;0.25;;;;;;;19.06;49.38;99718.72;126014;1101;23545;-64
2021/05/21 10:16:21;;;;;;;3.10;0.27;;;;;;;19.06;49.10;99713.06;126040;1101;22751;-64
2021/05/21 10:18:56;;;;;;;0.53;0.20;;;;;;;19.12;48.45;99719.34;125942;1101;22742;-64
2021/05/21 10:21:26;;;;;;;0.87;0.20;;;;;;;19.14;48.65;99725.23;125927;1095;27365;-63
2021/05/21 10:24:05;;;;;;;0.70;0.20;;;;;;;19.17;47.55;99726.95;126247;1095;26372;-64
2021/05/21 10:26:39;;;;;;;2.87;0.20;;;;;;;19.15;47.62;99719.02;125852;1101;22804;-63
2021/05/21 10:29:12;;;;;;;0.87;0.20;;;;;;;19.13;47.26;99709.55;125992;1101;24376;-63
2021/05/21 10:31:42;;;;;;;2.43;0.20;;;;;;;19.18;47.73;99697.36;126018;1101;22904;-63
2021/05/21 10:34:16;;;;;;;2.57;0.40;;;;;;;19.29;47.68;99694.23;126120;1101;22752;-64
2021/05/21 10:36:49;;;;;;;2.93;0.30;;;;;;;19.43;47.42;99692.87;126071;1096;22726;-64
2021/05/21 10:39:21;;;;;;;1.23;0.20;;;;;;;19.55;47.17;99696.19;126482;1096;22741;-64
2021/05/21 10:41:53;;;;;;;0.70;0.20;;;;;;;19.57;46.71;99679.41;126450;1101;22752;-66
2021/05/21 10:44:27;;;;;;;1.90;0.13;;;;;;;19.61;46.39;99672.08;126767;1101;22859;-65
2021/05/21 10:47:26;;;;;;;1.13;0.20;;;;;;;19.66;46.38;99671.16;126833;1101;22803;-64
2021/05/21 10:50:17;;;;;;;2.83;0.30;;;;;;;19.69;46.23;99669.29;125429;1104;24128;-64
2021/05/21 10:52:56;;;;;;;2.00;0.30;;;;;;;19.72;46.41;99666.09;125602;1104;22916;-64
2021/05/21 10:55:52;;;;;;;1.60;0.30;;;;;;;19.78;46.04;99655.38;125373;1104;22885;-64
2021/05/21 10:58:29;;;;;;;1.40;0.20;;;;;;;19.83;45.29;99662.20;125432;1105;22807;-64
2021/05/21 11:01:25;;;;;;;3.90;0.20;;;;;;;19.86;45.25;99661.84;125642;1104;22823;-64
2021/05/21 11:04:07;;;;;;;0.80;0.20;;;;;;;19.89;45.35;99663.57;125496;1104;24546;-64
2021/05/21 11:06:55;;;;;;;1.40;0.30;;;;;;;19.85;44.91;99668.07;125406;1104;22731;-64
2021/05/21 11:09:28;;;;;;;3.10;0.30;;;;;;;19.83;45.47;99667.87;125550;1099;27772;-63
2021/05/21 11:12:05;;;;;;;1.43;0.30;;;;;;;19.85;44.78;99674.50;125477;1104;22881;-64
2021/05/21 11:14:40;;;;;;;0.90;0.13;;;;;;;19.82;44.10;99669.94;125802;1104;22729;-64
2021/05/21 11:17:23;;;;;;;1.33;0.20;;;;;;;19.74;44.44;99665.56;125676;1104;22745;-64
2021/05/21 11:19:57;;;;;;;3.23;0.30;;;;;;;19.70;45.23;99660.23;125559;1104;22932;-63
2021/05/21 11:22:39;;;;;;;1.40;0.20;;;;;;;19.75;45.37;99650.84;125629;1104;22817;-63
2021/05/21 11:25:15;;;;;;;2.10;0.25;;;;;;;19.85;45.28;99649.00;125646;1105;22727;-64
2021/05/21 11:27:46;;;;;;;2.30;0.10;;;;;;;19.96;44.38;99645.10;126633;1101;24128;-63
2021/05/21 11:30:20;;;;;;;0.65;0.10;;;;;;;19.97;44.02;99647.38;125945;1101;22810;-64
2021/05/21 11:32:50;;;;;;;2.48;0.20;;;;;;;19.96;43.77;99631.70;125711;1101;22868;-64
2021/05/21 11:35:23;;;;;;;4.98;0.20;;;;;;;19.98;44.03;99623.41;125692;1101;22738;-64
2021/05/21 11:37:56;;;;;;;1.27;0.20;;;;;;;20.05;43.73;99617.00;126033;1101;22755;-64
2021/05/21 11:40:27;;;;;;;2.23;0.20;;;;;;;20.12;43.04;99610.61;125925;1095;26018;-63
2021/05/21 11:42:59;;;;;;;2.43;0.20;;;;;;;20.17;43.02;99608.94;125759;1101;22745;-64
2021/05/21 11:45:29;;;;;;;3.13;0.20;;;;;;;20.23;43.36;99605.95;125632;1101;24418;-64
2021/05/21 11:47:59;;;;;;;1.48;0.10;;;;;;;20.29;43.21;99601.64;125705;1101;22722;-64